sensor_id;sensor_type;location;lat;lon;timestamp;P1;durP1;ratioP1;P2;durP2;ratioP2
52686;SDS011;38584;49.426;8.396;2024-01-27T00:02:10;12.40;;;2.70;;
52686;SDS011;38584;49.426;8.396;2024-01-27T00:04:35;13.30;;;2.75;;
52686;SDS011;38584;49.426;8.396;2024-01-27T00:07:02;13.93;;;2.78;;
52686;SDS011;38584;49.426;8.396;2024-01-27T00:09:30;16.73;;;2.90;;
52686;SDS011;38584;49.426;8.396;2024-01-27T00:11:55;15.95;;;3.42;;
52686;SDS011;38584;49.426;8.396;2024-01-27T00:14:24;10.43;;;2.25;;
52686;SDS011;38584;49.426;8.396;2024-01-27T00:16:49;9.48;;;2.70;;
52686;SDS011;38584;49.426;8.396;2024-01-27T00:19:14;11.05;;;3.03;;
52686;SDS011;38584;49.426;8.396;2024-01-27T00:21:40;11.73;;;2.92;;
52686;SDS011;38584;49.426;8.396;2024-01-27T00:24:05;15.98;;;3.53;;
52686;SDS011;38584;49.426;8.396;2024-01-27T00:26:30;19.25;;;3.33;;
52686;SDS011;38584;49.426;8.396;2024-01-27T00:28:56;15.85;;;3.30;;
52686;SDS011;38584;49.426;8.396;2024-01-27T00:31:21;20.55;;;3.80;;
52686;SDS011;38584;49.426;8.396;2024-01-27T00:33:53;14.77;;;3.30;;
52686;SDS011;38584;49.426;8.396;2024-01-27T00:36:18;14.52;;;2.97;;
52686;SDS011;38584;49.426;8.396;2024-01-27T00:38:44;17.52;;;3.53;;
52686;SDS011;38584;49.426;8.396;2024-01-27T00:41:16;10.00;;;2.92;;
52686;SDS011;38584;49.426;8.396;2024-01-27T00:43:42;15.82;;;3.17;;
52686;SDS011;38584;49.426;8.396;2024-01-27T00:46:07;12.48;;;3.17;;
52686;SDS011;38584;49.426;8.396;2024-01-27T00:48:33;12.15;;;2.70;;
52686;SDS011;38584;49.426;8.396;2024-01-27T00:50:58;21.48;;;3.15;;
52686;SDS011;38584;49.426;8.396;2024-01-27T00:53:23;13.35;;;3.53;;
52686;SDS011;38584;49.426;8.396;2024-01-27T00:55:52;14.88;;;3.25;;
52686;SDS011;38584;49.426;8.396;2024-01-27T00:58:20;12.45;;;3.42;;
52686;SDS011;38584;49.426;8.396;2024-01-27T01:00:48;10.23;;;2.50;;
52686;SDS011;38584;49.426;8.396;2024-01-27T01:03:13;12.93;;;2.80;;
52686;SDS011;38584;49.426;8.396;2024-01-27T01:05:39;11.80;;;2.75;;
52686;SDS011;38584;49.426;8.396;2024-01-27T01:08:04;11.43;;;2.60;;
52686;SDS011;38584;49.426;8.396;2024-01-27T01:10:31;10.23;;;2.80;;
52686;SDS011;38584;49.426;8.396;2024-01-27T01:12:57;9.25;;;2.70;;
52686;SDS011;38584;49.426;8.396;2024-01-27T01:15:22;16.77;;;3.03;;
52686;SDS011;38584;49.426;8.396;2024-01-27T01:17:47;15.43;;;3.05;;
52686;SDS011;38584;49.426;8.396;2024-01-27T01:20:13;13.50;;;3.00;;
52686;SDS011;38584;49.426;8.396;2024-01-27T01:22:38;12.88;;;3.25;;
52686;SDS011;38584;49.426;8.396;2024-01-27T01:25:04;17.48;;;3.58;;
52686;SDS011;38584;49.426;8.396;2024-01-27T01:27:29;12.57;;;3.03;;
52686;SDS011;38584;49.426;8.396;2024-01-27T01:29:55;16.48;;;3.80;;
52686;SDS011;38584;49.426;8.396;2024-01-27T01:32:20;20.38;;;3.60;;
52686;SDS011;38584;49.426;8.396;2024-01-27T01:34:47;13.63;;;3.35;;
52686;SDS011;38584;49.426;8.396;2024-01-27T01:37:13;12.93;;;3.10;;
52686;SDS011;38584;49.426;8.396;2024-01-27T01:39:41;20.77;;;3.45;;
52686;SDS011;38584;49.426;8.396;2024-01-27T01:42:06;13.07;;;2.83;;
52686;SDS011;38584;49.426;8.396;2024-01-27T01:44:32;22.30;;;3.00;;
52686;SDS011;38584;49.426;8.396;2024-01-27T01:46:58;19.73;;;3.50;;
52686;SDS011;38584;49.426;8.396;2024-01-27T01:49:23;15.52;;;3.78;;
52686;SDS011;38584;49.426;8.396;2024-01-27T01:51:49;16.75;;;3.28;;
52686;SDS011;38584;49.426;8.396;2024-01-27T01:54:14;20.88;;;3.22;;
52686;SDS011;38584;49.426;8.396;2024-01-27T01:56:40;13.27;;;3.70;;
52686;SDS011;38584;49.426;8.396;2024-01-27T01:59:07;14.43;;;3.88;;
52686;SDS011;38584;49.426;8.396;2024-01-27T02:01:35;15.02;;;2.95;;
52686;SDS011;38584;49.426;8.396;2024-01-27T02:04:00;17.83;;;3.53;;
52686;SDS011;38584;49.426;8.396;2024-01-27T02:06:26;17.13;;;3.47;;
52686;SDS011;38584;49.426;8.396;2024-01-27T02:08:51;15.27;;;3.45;;
52686;SDS011;38584;49.426;8.396;2024-01-27T02:11:16;16.77;;;4.05;;
52686;SDS011;38584;49.426;8.396;2024-01-27T02:13:42;13.95;;;3.40;;
52686;SDS011;38584;49.426;8.396;2024-01-27T02:16:11;14.05;;;3.92;;
52686;SDS011;38584;49.426;8.396;2024-01-27T02:18:36;16.17;;;4.47;;
52686;SDS011;38584;49.426;8.396;2024-01-27T02:21:01;17.42;;;5.53;;
52686;SDS011;38584;49.426;8.396;2024-01-27T02:23:27;14.55;;;4.28;;
52686;SDS011;38584;49.426;8.396;2024-01-27T02:25:52;15.88;;;3.95;;
52686;SDS011;38584;49.426;8.396;2024-01-27T02:28:17;19.77;;;4.63;;
52686;SDS011;38584;49.426;8.396;2024-01-27T02:30:46;22.27;;;4.78;;
52686;SDS011;38584;49.426;8.396;2024-01-27T02:33:20;17.50;;;4.35;;
52686;SDS011;38584;49.426;8.396;2024-01-27T02:35:46;14.30;;;4.13;;
52686;SDS011;38584;49.426;8.396;2024-01-27T02:38:16;21.17;;;5.50;;
52686;SDS011;38584;49.426;8.396;2024-01-27T02:40:41;19.65;;;5.45;;
52686;SDS011;38584;49.426;8.396;2024-01-27T02:43:06;27.88;;;5.70;;
52686;SDS011;38584;49.426;8.396;2024-01-27T02:45:32;19.20;;;5.07;;
52686;SDS011;38584;49.426;8.396;2024-01-27T02:47:57;16.33;;;4.82;;
52686;SDS011;38584;49.426;8.396;2024-01-27T02:50:29;19.30;;;5.00;;
52686;SDS011;38584;49.426;8.396;2024-01-27T02:52:54;16.90;;;4.97;;
52686;SDS011;38584;49.426;8.396;2024-01-27T02:55:23;14.95;;;4.45;;
52686;SDS011;38584;49.426;8.396;2024-01-27T02:57:48;14.90;;;4.32;;
52686;SDS011;38584;49.426;8.396;2024-01-27T03:00:13;15.02;;;4.13;;
52686;SDS011;38584;49.426;8.396;2024-01-27T03:02:39;16.38;;;4.20;;
52686;SDS011;38584;49.426;8.396;2024-01-27T03:05:04;14.55;;;4.10;;
52686;SDS011;38584;49.426;8.396;2024-01-27T03:07:30;16.92;;;4.28;;
52686;SDS011;38584;49.426;8.396;2024-01-27T03:09:55;16.23;;;3.55;;
52686;SDS011;38584;49.426;8.396;2024-01-27T03:12:20;21.63;;;4.63;;
52686;SDS011;38584;49.426;8.396;2024-01-27T03:14:53;14.48;;;4.10;;
52686;SDS011;38584;49.426;8.396;2024-01-27T03:17:19;12.30;;;3.88;;
52686;SDS011;38584;49.426;8.396;2024-01-27T03:19:45;15.75;;;3.25;;
52686;SDS011;38584;49.426;8.396;2024-01-27T03:22:13;14.57;;;3.63;;
52686;SDS011;38584;49.426;8.396;2024-01-27T03:24:38;22.15;;;4.22;;
52686;SDS011;38584;49.426;8.396;2024-01-27T03:27:04;14.88;;;3.40;;
52686;SDS011;38584;49.426;8.396;2024-01-27T03:29:29;16.92;;;3.42;;
52686;SDS011;38584;49.426;8.396;2024-01-27T03:31:54;16.08;;;3.92;;
52686;SDS011;38584;49.426;8.396;2024-01-27T03:34:19;15.82;;;3.78;;
52686;SDS011;38584;49.426;8.396;2024-01-27T03:36:49;19.58;;;4.03;;
52686;SDS011;38584;49.426;8.396;2024-01-27T03:39:15;15.88;;;3.88;;
52686;SDS011;38584;49.426;8.396;2024-01-27T03:41:40;16.92;;;3.88;;
52686;SDS011;38584;49.426;8.396;2024-01-27T03:44:08;15.35;;;4.20;;
52686;SDS011;38584;49.426;8.396;2024-01-27T03:46:33;13.70;;;3.65;;
52686;SDS011;38584;49.426;8.396;2024-01-27T03:48:59;15.93;;;4.47;;
52686;SDS011;38584;49.426;8.396;2024-01-27T03:51:24;17.52;;;4.20;;
52686;SDS011;38584;49.426;8.396;2024-01-27T03:53:51;16.08;;;4.35;;
52686;SDS011;38584;49.426;8.396;2024-01-27T03:56:16;14.55;;;4.55;;
52686;SDS011;38584;49.426;8.396;2024-01-27T03:58:42;19.15;;;4.20;;
52686;SDS011;38584;49.426;8.396;2024-01-27T04:01:14;14.75;;;4.30;;
52686;SDS011;38584;49.426;8.396;2024-01-27T04:03:40;17.60;;;4.38;;
52686;SDS011;38584;49.426;8.396;2024-01-27T04:06:05;16.40;;;4.13;;
52686;SDS011;38584;49.426;8.396;2024-01-27T04:08:30;12.43;;;3.88;;
52686;SDS011;38584;49.426;8.396;2024-01-27T04:10:56;14.10;;;4.05;;
52686;SDS011;38584;49.426;8.396;2024-01-27T04:13:21;14.05;;;3.50;;
52686;SDS011;38584;49.426;8.396;2024-01-27T04:15:46;11.45;;;3.40;;
52686;SDS011;38584;49.426;8.396;2024-01-27T04:18:12;14.40;;;3.70;;
52686;SDS011;38584;49.426;8.396;2024-01-27T04:20:38;16.50;;;3.75;;
52686;SDS011;38584;49.426;8.396;2024-01-27T04:23:03;13.23;;;4.60;;
52686;SDS011;38584;49.426;8.396;2024-01-27T04:25:29;18.27;;;4.25;;
52686;SDS011;38584;49.426;8.396;2024-01-27T04:27:57;14.95;;;3.83;;
52686;SDS011;38584;49.426;8.396;2024-01-27T04:30:22;14.50;;;3.70;;
52686;SDS011;38584;49.426;8.396;2024-01-27T04:32:48;11.68;;;3.80;;
52686;SDS011;38584;49.426;8.396;2024-01-27T04:35:15;13.98;;;3.95;;
52686;SDS011;38584;49.426;8.396;2024-01-27T04:37:40;18.05;;;4.10;;
52686;SDS011;38584;49.426;8.396;2024-01-27T04:40:05;13.18;;;3.95;;
52686;SDS011;38584;49.426;8.396;2024-01-27T04:42:35;13.40;;;3.95;;
52686;SDS011;38584;49.426;8.396;2024-01-27T04:45:02;16.15;;;4.07;;
52686;SDS011;38584;49.426;8.396;2024-01-27T04:47:29;11.20;;;3.78;;
52686;SDS011;38584;49.426;8.396;2024-01-27T04:49:58;17.73;;;4.47;;
52686;SDS011;38584;49.426;8.396;2024-01-27T04:52:23;16.02;;;4.60;;
52686;SDS011;38584;49.426;8.396;2024-01-27T04:54:49;15.90;;;4.72;;
52686;SDS011;38584;49.426;8.396;2024-01-27T04:57:14;12.95;;;4.03;;
52686;SDS011;38584;49.426;8.396;2024-01-27T04:59:39;17.85;;;4.40;;
52686;SDS011;38584;49.426;8.396;2024-01-27T05:02:08;17.58;;;4.00;;
52686;SDS011;38584;49.426;8.396;2024-01-27T05:04:33;18.52;;;3.78;;
52686;SDS011;38584;49.426;8.396;2024-01-27T05:06:59;11.95;;;3.80;;
52686;SDS011;38584;49.426;8.396;2024-01-27T05:09:24;12.10;;;3.58;;
52686;SDS011;38584;49.426;8.396;2024-01-27T05:11:50;14.30;;;4.32;;
52686;SDS011;38584;49.426;8.396;2024-01-27T05:14:21;14.45;;;4.07;;
52686;SDS011;38584;49.426;8.396;2024-01-27T05:16:47;14.82;;;4.22;;
52686;SDS011;38584;49.426;8.396;2024-01-27T05:19:12;13.98;;;4.10;;
52686;SDS011;38584;49.426;8.396;2024-01-27T05:21:37;14.45;;;4.53;;
52686;SDS011;38584;49.426;8.396;2024-01-27T05:24:03;20.42;;;4.70;;
52686;SDS011;38584;49.426;8.396;2024-01-27T05:26:29;16.00;;;4.05;;
52686;SDS011;38584;49.426;8.396;2024-01-27T05:28:54;15.57;;;4.07;;
52686;SDS011;38584;49.426;8.396;2024-01-27T05:31:19;17.02;;;4.07;;
52686;SDS011;38584;49.426;8.396;2024-01-27T05:33:44;17.02;;;4.25;;
52686;SDS011;38584;49.426;8.396;2024-01-27T05:36:13;11.95;;;3.83;;
52686;SDS011;38584;49.426;8.396;2024-01-27T05:38:38;18.80;;;4.07;;
52686;SDS011;38584;49.426;8.396;2024-01-27T05:41:03;12.85;;;3.90;;
52686;SDS011;38584;49.426;8.396;2024-01-27T05:43:32;18.30;;;5.10;;
52686;SDS011;38584;49.426;8.396;2024-01-27T05:45:57;14.93;;;4.07;;
52686;SDS011;38584;49.426;8.396;2024-01-27T05:48:22;17.00;;;4.40;;
52686;SDS011;38584;49.426;8.396;2024-01-27T05:50:54;16.17;;;4.22;;
52686;SDS011;38584;49.426;8.396;2024-01-27T05:53:23;12.88;;;4.22;;
52686;SDS011;38584;49.426;8.396;2024-01-27T05:55:55;16.70;;;4.28;;
52686;SDS011;38584;49.426;8.396;2024-01-27T05:58:21;13.98;;;4.50;;
52686;SDS011;38584;49.426;8.396;2024-01-27T06:00:47;18.38;;;4.60;;
52686;SDS011;38584;49.426;8.396;2024-01-27T06:03:19;14.18;;;4.38;;
52686;SDS011;38584;49.426;8.396;2024-01-27T06:05:44;13.77;;;4.40;;
52686;SDS011;38584;49.426;8.396;2024-01-27T06:08:10;17.73;;;5.03;;
52686;SDS011;38584;49.426;8.396;2024-01-27T06:10:35;13.18;;;4.30;;
52686;SDS011;38584;49.426;8.396;2024-01-27T06:13:03;13.25;;;4.60;;
52686;SDS011;38584;49.426;8.396;2024-01-27T06:15:29;17.52;;;4.82;;
52686;SDS011;38584;49.426;8.396;2024-01-27T06:17:54;21.48;;;5.15;;
52686;SDS011;38584;49.426;8.396;2024-01-27T06:20:19;18.65;;;5.32;;
52686;SDS011;38584;49.426;8.396;2024-01-27T06:22:45;16.63;;;5.00;;
52686;SDS011;38584;49.426;8.396;2024-01-27T06:25:10;15.70;;;5.22;;
52686;SDS011;38584;49.426;8.396;2024-01-27T06:27:36;16.30;;;4.78;;
52686;SDS011;38584;49.426;8.396;2024-01-27T06:30:06;19.42;;;6.13;;
52686;SDS011;38584;49.426;8.396;2024-01-27T06:32:32;16.35;;;5.13;;
52686;SDS011;38584;49.426;8.396;2024-01-27T06:34:57;16.02;;;5.72;;
52686;SDS011;38584;49.426;8.396;2024-01-27T06:37:22;17.38;;;5.10;;
52686;SDS011;38584;49.426;8.396;2024-01-27T06:39:48;17.73;;;5.03;;
52686;SDS011;38584;49.426;8.396;2024-01-27T06:42:13;17.40;;;5.70;;
52686;SDS011;38584;49.426;8.396;2024-01-27T06:44:38;15.80;;;5.60;;
52686;SDS011;38584;49.426;8.396;2024-01-27T06:47:04;18.63;;;5.57;;
52686;SDS011;38584;49.426;8.396;2024-01-27T06:49:29;18.27;;;5.55;;
52686;SDS011;38584;49.426;8.396;2024-01-27T06:51:54;15.88;;;5.20;;
52686;SDS011;38584;49.426;8.396;2024-01-27T06:54:20;18.42;;;5.38;;
52686;SDS011;38584;49.426;8.396;2024-01-27T06:56:45;18.98;;;5.82;;
52686;SDS011;38584;49.426;8.396;2024-01-27T06:59:10;14.63;;;5.18;;
52686;SDS011;38584;49.426;8.396;2024-01-27T07:01:36;16.55;;;6.10;;
52686;SDS011;38584;49.426;8.396;2024-01-27T07:04:01;17.88;;;5.55;;
52686;SDS011;38584;49.426;8.396;2024-01-27T07:06:26;17.92;;;5.80;;
52686;SDS011;38584;49.426;8.396;2024-01-27T07:08:51;18.55;;;5.35;;
52686;SDS011;38584;49.426;8.396;2024-01-27T07:11:17;18.38;;;6.05;;
52686;SDS011;38584;49.426;8.396;2024-01-27T07:13:42;18.67;;;6.38;;
52686;SDS011;38584;49.426;8.396;2024-01-27T07:16:07;18.65;;;6.82;;
52686;SDS011;38584;49.426;8.396;2024-01-27T07:18:33;16.20;;;5.78;;
52686;SDS011;38584;49.426;8.396;2024-01-27T07:21:00;17.50;;;6.05;;
52686;SDS011;38584;49.426;8.396;2024-01-27T07:23:26;20.00;;;6.80;;
52686;SDS011;38584;49.426;8.396;2024-01-27T07:25:51;20.45;;;7.07;;
52686;SDS011;38584;49.426;8.396;2024-01-27T07:28:16;20.00;;;7.40;;
52686;SDS011;38584;49.426;8.396;2024-01-27T07:30:43;22.13;;;8.10;;
52686;SDS011;38584;49.426;8.396;2024-01-27T07:33:10;19.65;;;7.97;;
52686;SDS011;38584;49.426;8.396;2024-01-27T07:35:39;21.42;;;6.72;;
52686;SDS011;38584;49.426;8.396;2024-01-27T07:38:05;19.40;;;7.68;;
52686;SDS011;38584;49.426;8.396;2024-01-27T07:40:30;18.40;;;7.80;;
52686;SDS011;38584;49.426;8.396;2024-01-27T07:42:56;18.73;;;7.40;;
52686;SDS011;38584;49.426;8.396;2024-01-27T07:45:21;22.65;;;7.85;;
52686;SDS011;38584;49.426;8.396;2024-01-27T07:47:46;23.50;;;9.02;;
52686;SDS011;38584;49.426;8.396;2024-01-27T07:50:12;21.95;;;8.45;;
52686;SDS011;38584;49.426;8.396;2024-01-27T07:52:46;20.60;;;8.35;;
52686;SDS011;38584;49.426;8.396;2024-01-27T07:55:12;26.80;;;9.57;;
52686;SDS011;38584;49.426;8.396;2024-01-27T07:57:37;27.52;;;9.30;;
52686;SDS011;38584;49.426;8.396;2024-01-27T08:00:03;18.92;;;9.27;;
52686;SDS011;38584;49.426;8.396;2024-01-27T08:02:28;21.40;;;9.63;;
52686;SDS011;38584;49.426;8.396;2024-01-27T08:04:54;21.77;;;9.15;;
52686;SDS011;38584;49.426;8.396;2024-01-27T08:07:19;23.25;;;9.75;;
52686;SDS011;38584;49.426;8.396;2024-01-27T08:09:44;22.45;;;9.63;;
52686;SDS011;38584;49.426;8.396;2024-01-27T08:12:10;21.63;;;9.20;;
52686;SDS011;38584;49.426;8.396;2024-01-27T08:14:35;20.95;;;9.38;;
52686;SDS011;38584;49.426;8.396;2024-01-27T08:17:01;27.13;;;9.30;;
52686;SDS011;38584;49.426;8.396;2024-01-27T08:19:26;23.77;;;9.60;;
52686;SDS011;38584;49.426;8.396;2024-01-27T08:21:51;25.90;;;9.52;;
52686;SDS011;38584;49.426;8.396;2024-01-27T08:24:17;22.55;;;9.00;;
52686;SDS011;38584;49.426;8.396;2024-01-27T08:26:42;25.30;;;8.57;;
52686;SDS011;38584;49.426;8.396;2024-01-27T08:29:08;22.98;;;8.18;;
52686;SDS011;38584;49.426;8.396;2024-01-27T08:31:39;19.90;;;7.55;;
52686;SDS011;38584;49.426;8.396;2024-01-27T08:34:04;23.50;;;8.90;;
52686;SDS011;38584;49.426;8.396;2024-01-27T08:36:33;22.60;;;8.07;;
52686;SDS011;38584;49.426;8.396;2024-01-27T08:38:59;26.00;;;8.10;;
52686;SDS011;38584;49.426;8.396;2024-01-27T08:41:27;18.60;;;8.45;;
52686;SDS011;38584;49.426;8.396;2024-01-27T08:43:54;24.33;;;8.40;;
52686;SDS011;38584;49.426;8.396;2024-01-27T08:46:19;27.00;;;8.90;;
52686;SDS011;38584;49.426;8.396;2024-01-27T08:48:50;22.08;;;9.25;;
52686;SDS011;38584;49.426;8.396;2024-01-27T08:51:15;26.52;;;10.27;;
52686;SDS011;38584;49.426;8.396;2024-01-27T08:53:50;28.13;;;10.32;;
52686;SDS011;38584;49.426;8.396;2024-01-27T08:56:19;26.85;;;11.13;;
52686;SDS011;38584;49.426;8.396;2024-01-27T08:58:44;27.63;;;10.55;;
52686;SDS011;38584;49.426;8.396;2024-01-27T09:01:10;23.77;;;10.25;;
52686;SDS011;38584;49.426;8.396;2024-01-27T09:03:37;25.30;;;9.80;;
52686;SDS011;38584;49.426;8.396;2024-01-27T09:06:04;27.67;;;10.55;;
52686;SDS011;38584;49.426;8.396;2024-01-27T09:08:33;23.38;;;10.60;;
52686;SDS011;38584;49.426;8.396;2024-01-27T09:10:59;19.42;;;9.55;;
52686;SDS011;38584;49.426;8.396;2024-01-27T09:13:31;20.23;;;9.57;;
52686;SDS011;38584;49.426;8.396;2024-01-27T09:15:57;25.92;;;10.60;;
52686;SDS011;38584;49.426;8.396;2024-01-27T09:18:26;22.88;;;9.93;;
52686;SDS011;38584;49.426;8.396;2024-01-27T09:20:52;23.70;;;10.23;;
52686;SDS011;38584;49.426;8.396;2024-01-27T09:23:18;27.02;;;10.40;;
52686;SDS011;38584;49.426;8.396;2024-01-27T09:25:43;21.42;;;9.57;;
52686;SDS011;38584;49.426;8.396;2024-01-27T09:28:08;25.35;;;9.93;;
52686;SDS011;38584;49.426;8.396;2024-01-27T09:30:34;23.15;;;10.02;;
52686;SDS011;38584;49.426;8.396;2024-01-27T09:33:00;20.48;;;9.77;;
52686;SDS011;38584;49.426;8.396;2024-01-27T09:35:25;21.63;;;9.27;;
52686;SDS011;38584;49.426;8.396;2024-01-27T09:37:53;26.08;;;10.32;;
52686;SDS011;38584;49.426;8.396;2024-01-27T09:40:18;27.52;;;10.20;;
52686;SDS011;38584;49.426;8.396;2024-01-27T09:42:53;20.65;;;9.85;;
52686;SDS011;38584;49.426;8.396;2024-01-27T09:45:26;23.55;;;10.65;;
52686;SDS011;38584;49.426;8.396;2024-01-27T09:47:51;25.13;;;10.25;;
52686;SDS011;38584;49.426;8.396;2024-01-27T09:50:17;26.13;;;9.85;;
52686;SDS011;38584;49.426;8.396;2024-01-27T09:52:43;26.77;;;10.63;;
52686;SDS011;38584;49.426;8.396;2024-01-27T09:55:09;26.63;;;11.00;;
52686;SDS011;38584;49.426;8.396;2024-01-27T09:57:36;25.13;;;10.38;;
52686;SDS011;38584;49.426;8.396;2024-01-27T10:00:06;22.05;;;9.18;;
52686;SDS011;38584;49.426;8.396;2024-01-27T10:02:41;24.20;;;9.10;;
52686;SDS011;38584;49.426;8.396;2024-01-27T10:05:08;25.45;;;9.60;;
52686;SDS011;38584;49.426;8.396;2024-01-27T10:07:34;21.70;;;9.05;;
52686;SDS011;38584;49.426;8.396;2024-01-27T10:09:59;20.38;;;8.88;;
52686;SDS011;38584;49.426;8.396;2024-01-27T10:12:25;23.33;;;8.70;;
52686;SDS011;38584;49.426;8.396;2024-01-27T10:14:54;25.05;;;8.63;;
52686;SDS011;38584;49.426;8.396;2024-01-27T10:17:28;20.40;;;8.20;;
52686;SDS011;38584;49.426;8.396;2024-01-27T10:20:00;22.50;;;7.90;;
52686;SDS011;38584;49.426;8.396;2024-01-27T10:22:36;25.42;;;7.90;;
52686;SDS011;38584;49.426;8.396;2024-01-27T10:25:05;25.77;;;8.63;;
52686;SDS011;38584;49.426;8.396;2024-01-27T10:27:31;21.15;;;7.75;;
52686;SDS011;38584;49.426;8.396;2024-01-27T10:30:00;23.48;;;7.22;;
52686;SDS011;38584;49.426;8.396;2024-01-27T10:32:25;17.38;;;6.88;;
52686;SDS011;38584;49.426;8.396;2024-01-27T10:35:06;19.02;;;6.97;;
52686;SDS011;38584;49.426;8.396;2024-01-27T10:37:41;23.80;;;6.65;;
52686;SDS011;38584;49.426;8.396;2024-01-27T10:40:07;19.05;;;6.47;;
52686;SDS011;38584;49.426;8.396;2024-01-27T10:42:33;22.85;;;6.93;;
52686;SDS011;38584;49.426;8.396;2024-01-27T10:44:59;23.00;;;6.80;;
52686;SDS011;38584;49.426;8.396;2024-01-27T10:47:38;16.13;;;6.25;;
52686;SDS011;38584;49.426;8.396;2024-01-27T10:50:04;20.20;;;5.95;;
52686;SDS011;38584;49.426;8.396;2024-01-27T10:52:34;21.88;;;6.63;;
52686;SDS011;38584;49.426;8.396;2024-01-27T10:55:03;23.10;;;6.15;;
52686;SDS011;38584;49.426;8.396;2024-01-27T10:57:35;18.80;;;6.43;;
52686;SDS011;38584;49.426;8.396;2024-01-27T11:00:02;21.30;;;6.57;;
52686;SDS011;38584;49.426;8.396;2024-01-27T11:02:34;17.38;;;4.97;;
52686;SDS011;38584;49.426;8.396;2024-01-27T11:05:09;14.80;;;5.20;;
52686;SDS011;38584;49.426;8.396;2024-01-27T11:07:35;18.05;;;5.47;;
52686;SDS011;38584;49.426;8.396;2024-01-27T11:10:03;19.60;;;5.32;;
52686;SDS011;38584;49.426;8.396;2024-01-27T11:12:31;21.08;;;6.20;;
52686;SDS011;38584;49.426;8.396;2024-01-27T11:14:57;18.10;;;5.78;;
52686;SDS011;38584;49.426;8.396;2024-01-27T11:17:25;20.77;;;5.85;;
52686;SDS011;38584;49.426;8.396;2024-01-27T11:19:51;19.15;;;5.90;;
52686;SDS011;38584;49.426;8.396;2024-01-27T11:22:23;17.77;;;5.22;;
52686;SDS011;38584;49.426;8.396;2024-01-27T11:24:51;19.52;;;5.15;;
52686;SDS011;38584;49.426;8.396;2024-01-27T11:27:16;16.92;;;5.18;;
52686;SDS011;38584;49.426;8.396;2024-01-27T11:29:47;12.52;;;5.03;;
52686;SDS011;38584;49.426;8.396;2024-01-27T11:32:13;19.88;;;5.25;;
52686;SDS011;38584;49.426;8.396;2024-01-27T11:34:41;16.10;;;5.35;;
52686;SDS011;38584;49.426;8.396;2024-01-27T11:37:10;20.25;;;4.78;;
52686;SDS011;38584;49.426;8.396;2024-01-27T11:39:39;17.02;;;4.22;;
52686;SDS011;38584;49.426;8.396;2024-01-27T11:42:05;14.45;;;3.53;;
52686;SDS011;38584;49.426;8.396;2024-01-27T11:44:33;19.83;;;4.50;;
52686;SDS011;38584;49.426;8.396;2024-01-27T11:47:18;16.95;;;4.40;;
52686;SDS011;38584;49.426;8.396;2024-01-27T11:49:50;16.13;;;3.92;;
52686;SDS011;38584;49.426;8.396;2024-01-27T11:52:19;16.17;;;3.30;;
52686;SDS011;38584;49.426;8.396;2024-01-27T11:54:44;19.42;;;3.75;;
52686;SDS011;38584;49.426;8.396;2024-01-27T11:57:10;14.93;;;3.08;;
52686;SDS011;38584;49.426;8.396;2024-01-27T11:59:38;15.43;;;3.47;;
52686;SDS011;38584;49.426;8.396;2024-01-27T12:02:03;23.33;;;3.72;;
52686;SDS011;38584;49.426;8.396;2024-01-27T12:04:32;14.68;;;3.80;;
52686;SDS011;38584;49.426;8.396;2024-01-27T12:06:57;16.67;;;4.13;;
52686;SDS011;38584;49.426;8.396;2024-01-27T12:09:25;17.30;;;3.92;;
52686;SDS011;38584;49.426;8.396;2024-01-27T12:11:50;15.70;;;4.00;;
52686;SDS011;38584;49.426;8.396;2024-01-27T12:14:16;17.33;;;3.83;;
52686;SDS011;38584;49.426;8.396;2024-01-27T12:16:42;18.55;;;4.13;;
52686;SDS011;38584;49.426;8.396;2024-01-27T12:19:09;16.30;;;3.40;;
52686;SDS011;38584;49.426;8.396;2024-01-27T12:21:36;18.63;;;3.40;;
52686;SDS011;38584;49.426;8.396;2024-01-27T12:24:01;15.98;;;3.30;;
52686;SDS011;38584;49.426;8.396;2024-01-27T12:26:30;13.63;;;3.10;;
52686;SDS011;38584;49.426;8.396;2024-01-27T12:28:56;15.50;;;3.63;;
52686;SDS011;38584;49.426;8.396;2024-01-27T12:31:25;18.00;;;3.90;;
52686;SDS011;38584;49.426;8.396;2024-01-27T12:33:52;16.55;;;3.60;;
52686;SDS011;38584;49.426;8.396;2024-01-27T12:36:21;17.13;;;3.95;;
52686;SDS011;38584;49.426;8.396;2024-01-27T12:39:00;15.32;;;3.85;;
52686;SDS011;38584;49.426;8.396;2024-01-27T12:41:26;14.50;;;3.22;;
52686;SDS011;38584;49.426;8.396;2024-01-27T12:43:53;16.10;;;3.55;;
52686;SDS011;38584;49.426;8.396;2024-01-27T12:46:18;16.30;;;4.00;;
52686;SDS011;38584;49.426;8.396;2024-01-27T12:48:45;17.42;;;4.00;;
52686;SDS011;38584;49.426;8.396;2024-01-27T12:51:10;18.08;;;4.07;;
52686;SDS011;38584;49.426;8.396;2024-01-27T12:53:38;18.80;;;3.92;;
52686;SDS011;38584;49.426;8.396;2024-01-27T12:56:03;26.40;;;4.60;;
52686;SDS011;38584;49.426;8.396;2024-01-27T12:58:32;13.98;;;3.35;;
52686;SDS011;38584;49.426;8.396;2024-01-27T13:00:57;16.10;;;3.75;;
52686;SDS011;38584;49.426;8.396;2024-01-27T13:03:22;11.32;;;2.97;;
52686;SDS011;38584;49.426;8.396;2024-01-27T13:05:48;19.58;;;4.05;;
52686;SDS011;38584;49.426;8.396;2024-01-27T13:08:13;16.27;;;3.10;;
52686;SDS011;38584;49.426;8.396;2024-01-27T13:10:38;17.02;;;3.65;;
52686;SDS011;38584;49.426;8.396;2024-01-27T13:13:04;17.00;;;3.42;;
52686;SDS011;38584;49.426;8.396;2024-01-27T13:15:29;12.45;;;3.20;;
52686;SDS011;38584;49.426;8.396;2024-01-27T13:17:55;14.20;;;2.83;;
52686;SDS011;38584;49.426;8.396;2024-01-27T13:20:20;16.13;;;3.35;;
52686;SDS011;38584;49.426;8.396;2024-01-27T13:22:48;16.08;;;2.88;;
52686;SDS011;38584;49.426;8.396;2024-01-27T13:25:14;15.85;;;2.95;;
52686;SDS011;38584;49.426;8.396;2024-01-27T13:27:40;18.13;;;3.10;;
52686;SDS011;38584;49.426;8.396;2024-01-27T13:30:05;14.07;;;3.28;;
52686;SDS011;38584;49.426;8.396;2024-01-27T13:32:34;18.75;;;3.17;;
52686;SDS011;38584;49.426;8.396;2024-01-27T13:35:02;14.02;;;3.15;;
52686;SDS011;38584;49.426;8.396;2024-01-27T13:37:28;12.85;;;2.67;;
52686;SDS011;38584;49.426;8.396;2024-01-27T13:39:58;15.75;;;3.05;;
52686;SDS011;38584;49.426;8.396;2024-01-27T13:42:27;15.70;;;3.40;;
52686;SDS011;38584;49.426;8.396;2024-01-27T13:44:52;15.68;;;3.33;;
52686;SDS011;38584;49.426;8.396;2024-01-27T13:47:18;17.13;;;3.22;;
52686;SDS011;38584;49.426;8.396;2024-01-27T13:49:46;14.05;;;2.70;;
52686;SDS011;38584;49.426;8.396;2024-01-27T13:52:18;14.57;;;3.15;;
52686;SDS011;38584;49.426;8.396;2024-01-27T13:54:43;14.30;;;3.10;;
52686;SDS011;38584;49.426;8.396;2024-01-27T13:57:08;12.93;;;3.05;;
52686;SDS011;38584;49.426;8.396;2024-01-27T13:59:35;13.40;;;3.10;;
52686;SDS011;38584;49.426;8.396;2024-01-27T14:02:06;11.85;;;2.90;;
52686;SDS011;38584;49.426;8.396;2024-01-27T14:04:35;15.45;;;3.50;;
52686;SDS011;38584;49.426;8.396;2024-01-27T14:07:00;20.20;;;3.63;;
52686;SDS011;38584;49.426;8.396;2024-01-27T14:09:31;15.18;;;3.72;;
52686;SDS011;38584;49.426;8.396;2024-01-27T14:11:57;18.52;;;3.97;;
52686;SDS011;38584;49.426;8.396;2024-01-27T14:14:22;16.80;;;3.90;;
52686;SDS011;38584;49.426;8.396;2024-01-27T14:16:48;16.98;;;3.78;;
52686;SDS011;38584;49.426;8.396;2024-01-27T14:19:16;18.52;;;3.58;;
52686;SDS011;38584;49.426;8.396;2024-01-27T14:21:41;12.32;;;3.38;;
52686;SDS011;38584;49.426;8.396;2024-01-27T14:24:09;16.40;;;3.63;;
52686;SDS011;38584;49.426;8.396;2024-01-27T14:26:35;13.32;;;3.33;;
52686;SDS011;38584;49.426;8.396;2024-01-27T14:29:00;16.35;;;3.92;;
52686;SDS011;38584;49.426;8.396;2024-01-27T14:31:35;16.05;;;3.72;;